ANA987 RJTT-RJCC
Flight info
| Callsign | ANA987 |
|---|---|
| Flight time | N/A |
| Altitude | 33000 |
| Route | BRUCE AGRIS Y11 SAMBO Y119 OHMAR Y13 SIRAO Y139 NAVER |
| Aircraft | A21N/M-SDE2E3FGHIRWXY/LB1 |
Departure
| Time | 2026-04-30 14:23 |
|---|---|
| Airport | Tokyo Haneda International Airport (RJTT) |
Arrival
| Time | N/A |
|---|---|
| Airport | New Chitose Airport (RJCC) |
| Time | Latitude | Longitude | Altitude | Speed | Heading |
|---|---|---|---|---|---|
| 2026-04-30 13:59 | 35.54942 | 139.79241 | 33 ft | 0 kts | 147° |
| 2026-04-30 14:01 | 35.54942 | 139.79240 | 33 ft | 0 kts | 147° |
| 2026-04-30 14:07 | 35.54943 | 139.79240 | 33 ft | 0 kts | 147° |
| 2026-04-30 14:11 | 35.54943 | 139.79239 | 33 ft | 0 kts | 147° |
| 2026-04-30 14:12 | 35.54952 | 139.79232 | 33 ft | 4 kts | 147° |
| 2026-04-30 14:13 | 35.54975 | 139.79214 | 33 ft | 4 kts | 146° |
| 2026-04-30 14:13 | 35.54992 | 139.79200 | 33 ft | 4 kts | 144° |
| 2026-04-30 14:13 | 35.55013 | 139.79179 | 33 ft | 4 kts | 133° |
| 2026-04-30 14:13 | 35.55032 | 139.79156 | 33 ft | 4 kts | 144° |
| 2026-04-30 14:14 | 35.55050 | 139.79142 | 33 ft | 4 kts | 149° |
| 2026-04-30 14:14 | 35.55070 | 139.79127 | 33 ft | 1 kts | 150° |
| 2026-04-30 14:14 | 35.55071 | 139.79127 | 33 ft | 1 kts | 150° |
| 2026-04-30 14:16 | 35.55060 | 139.79135 | 33 ft | 4 kts | 150° |
| 2026-04-30 14:17 | 35.55034 | 139.79170 | 34 ft | 8 kts | 107° |
| 2026-04-30 14:17 | 35.55043 | 139.79241 | 33 ft | 10 kts | 59° |
| 2026-04-30 14:17 | 35.55086 | 139.79328 | 31 ft | 13 kts | 58° |
| 2026-04-30 14:17 | 35.55120 | 139.79396 | 31 ft | 2 kts | 59° |
| 2026-04-30 14:18 | 35.55125 | 139.79439 | 33 ft | 9 kts | 118° |
| 2026-04-30 14:18 | 35.55075 | 139.79471 | 33 ft | 9 kts | 148° |
| 2026-04-30 14:18 | 35.54929 | 139.79580 | 31 ft | 15 kts | 151° |
| 2026-04-30 14:19 | 35.54714 | 139.79730 | 30 ft | 21 kts | 149° |
| 2026-04-30 14:19 | 35.54582 | 139.79825 | 30 ft | 23 kts | 149° |
| 2026-04-30 14:19 | 35.54435 | 139.79929 | 28 ft | 25 kts | 150° |
| 2026-04-30 14:20 | 35.54343 | 139.79993 | 27 ft | 7 kts | 150° |
| 2026-04-30 14:20 | 35.54289 | 139.80032 | 27 ft | 11 kts | 149° |
| 2026-04-30 14:20 | 35.54194 | 139.80185 | 29 ft | 13 kts | 50° |
| 2026-04-30 14:21 | 35.54241 | 139.80274 | 32 ft | 2 kts | 56° |
| 2026-04-30 14:21 | 35.54271 | 139.80299 | 33 ft | 8 kts | 356° |
| 2026-04-30 14:21 | 35.54313 | 139.80272 | 33 ft | 0 kts | 328° |
| 2026-04-30 14:22 | 35.54318 | 139.80268 | 33 ft | 4 kts | 327° |
| 2026-04-30 14:23 | 35.55289 | 139.79581 | 109 ft | 159 kts | 331° |
| 2026-04-30 14:23 | 35.57306 | 139.78424 | 1839 ft | 177 kts | 1° |
| 2026-04-30 14:24 | 35.59478 | 139.80312 | 3379 ft | 220 kts | 37° |
| 2026-04-30 14:24 | 35.60987 | 139.81152 | 4086 ft | 255 kts | 29° |
| 2026-04-30 14:25 | 35.64033 | 139.83790 | 6234 ft | 280 kts | 40° |
| 2026-04-30 14:25 | 35.67892 | 139.85260 | 8485 ft | 299 kts | 9° |
| 2026-04-30 14:26 | 35.71936 | 139.84631 | 10632 ft | 309 kts | 326° |
| 2026-04-30 14:26 | 35.73792 | 139.83102 | 11142 ft | 337 kts | 326° |
| 2026-04-30 14:26 | 35.78745 | 139.81966 | 11962 ft | 396 kts | 5° |
| 2026-04-30 14:27 | 35.81469 | 139.82879 | 12369 ft | 417 kts | 22° |
| 2026-04-30 14:27 | 35.84045 | 139.84621 | 13049 ft | 425 kts | 30° |
| 2026-04-30 14:27 | 35.86649 | 139.86385 | 13899 ft | 428 kts | 25° |
| 2026-04-30 14:28 | 35.92421 | 139.87893 | 15351 ft | 430 kts | 354° |
| 2026-04-30 14:28 | 35.95333 | 139.87139 | 16135 ft | 428 kts | 337° |
| 2026-04-30 14:28 | 35.98158 | 139.85904 | 16937 ft | 435 kts | 342° |
| 2026-04-30 14:28 | 36.01202 | 139.85511 | 17724 ft | 446 kts | 358° |
| 2026-04-30 14:29 | 36.07242 | 139.87774 | 19074 ft | 469 kts | 26° |
| 2026-04-30 14:29 | 36.12082 | 139.90938 | 19989 ft | 477 kts | 21° |
| 2026-04-30 14:30 | 36.22658 | 139.94832 | 21807 ft | 478 kts | 354° |
| 2026-04-30 14:31 | 36.29375 | 139.94631 | 22984 ft | 486 kts | 351° |
| 2026-04-30 14:31 | 36.36158 | 139.94405 | 24022 ft | 494 kts | 351° |
| 2026-04-30 14:31 | 36.39613 | 139.94302 | 24405 ft | 498 kts | 351° |
| 2026-04-30 14:32 | 36.46595 | 139.94418 | 25105 ft | 509 kts | 354° |
| 2026-04-30 14:32 | 36.50166 | 139.94569 | 25593 ft | 510 kts | 354° |
| 2026-04-30 14:32 | 36.53710 | 139.94726 | 26098 ft | 509 kts | 354° |
| 2026-04-30 14:33 | 36.57238 | 139.94884 | 26578 ft | 509 kts | 354° |
| 2026-04-30 14:33 | 36.64340 | 139.95191 | 27517 ft | 511 kts | 353° |
| 2026-04-30 14:33 | 36.67903 | 139.95344 | 27989 ft | 512 kts | 353° |
| 2026-04-30 14:34 | 36.71455 | 139.95497 | 28493 ft | 512 kts | 353° |
| 2026-04-30 14:34 | 36.75020 | 139.95651 | 29001 ft | 512 kts | 353° |
| 2026-04-30 14:34 | 36.78578 | 139.95806 | 29472 ft | 513 kts | 353° |
| 2026-04-30 14:34 | 36.82152 | 139.95960 | 29936 ft | 514 kts | 352° |
| 2026-04-30 14:35 | 36.89283 | 139.96621 | 30814 ft | 527 kts | 1° |
| 2026-04-30 14:35 | 36.92870 | 139.97542 | 31264 ft | 526 kts | 2° |
| 2026-04-30 14:35 | 36.96478 | 139.98483 | 31706 ft | 525 kts | 2° |
| 2026-04-30 14:36 | 37.00051 | 139.99405 | 32112 ft | 525 kts | 2° |
| 2026-04-30 14:36 | 37.03630 | 140.00327 | 32492 ft | 525 kts | 2° |
| 2026-04-30 14:36 | 37.07207 | 140.01251 | 32898 ft | 525 kts | 2° |
| 2026-04-30 14:36 | 37.10800 | 140.02179 | 33177 ft | 526 kts | 1° |
| 2026-04-30 14:37 | 37.14376 | 140.03104 | 33221 ft | 525 kts | 1° |
| 2026-04-30 14:37 | 37.21529 | 140.04951 | 33194 ft | 525 kts | 1° |
| 2026-04-30 14:38 | 37.28677 | 140.06803 | 33179 ft | 525 kts | 1° |
| 2026-04-30 14:38 | 37.35793 | 140.08649 | 33177 ft | 523 kts | 1° |
| 2026-04-30 14:39 | 37.42901 | 140.10495 | 33161 ft | 523 kts | 1° |
| 2026-04-30 14:39 | 37.49931 | 140.12314 | 33143 ft | 523 kts | 1° |
| 2026-04-30 14:40 | 37.60456 | 140.15063 | 33178 ft | 523 kts | 1° |
| 2026-04-30 14:40 | 37.67609 | 140.16930 | 33137 ft | 522 kts | 1° |
| 2026-04-30 14:41 | 37.74730 | 140.18808 | 33163 ft | 522 kts | 1° |
| 2026-04-30 14:41 | 37.81797 | 140.20667 | 33165 ft | 519 kts | 1° |
| 2026-04-30 14:42 | 37.88782 | 140.22507 | 33161 ft | 519 kts | 1° |
| 2026-04-30 14:42 | 37.95874 | 140.24367 | 33175 ft | 520 kts | 1° |
| 2026-04-30 14:43 | 38.02914 | 140.26228 | 33157 ft | 517 kts | 1° |
| 2026-04-30 14:43 | 38.09804 | 140.28044 | 33150 ft | 517 kts | 1° |
| 2026-04-30 14:44 | 38.16870 | 140.29926 | 33173 ft | 517 kts | 1° |
| 2026-04-30 14:44 | 38.23900 | 140.31797 | 33162 ft | 516 kts | 1° |
| 2026-04-30 14:45 | 38.30860 | 140.33647 | 33155 ft | 517 kts | 1° |
| 2026-04-30 14:45 | 38.37892 | 140.35523 | 33170 ft | 516 kts | 1° |
| 2026-04-30 14:46 | 38.44949 | 140.37741 | 33147 ft | 519 kts | 4° |
| 2026-04-30 14:46 | 38.50743 | 140.39591 | 33151 ft | 520 kts | 4° |
| 2026-04-30 14:47 | 38.58942 | 140.42229 | 33167 ft | 518 kts | 4° |
| 2026-04-30 14:47 | 38.65924 | 140.44471 | 33139 ft | 518 kts | 4° |
| 2026-04-30 14:48 | 38.72891 | 140.46718 | 33131 ft | 518 kts | 4° |